sensor_id;sensor_type;location;lat;lon;timestamp;P1;durP1;ratioP1;P2;durP2;ratioP2
13443;SDS011;6794;59.218;18.218;2023-05-19T00:01:10;2.87;;;1.23;;
13443;SDS011;6794;59.218;18.218;2023-05-19T00:03:37;4.40;;;1.50;;
13443;SDS011;6794;59.218;18.218;2023-05-19T00:06:04;2.97;;;1.70;;
13443;SDS011;6794;59.218;18.218;2023-05-19T00:08:32;2.97;;;1.50;;
13443;SDS011;6794;59.218;18.218;2023-05-19T00:10:59;4.87;;;1.70;;
13443;SDS011;6794;59.218;18.218;2023-05-19T00:13:26;3.90;;;1.40;;
13443;SDS011;6794;59.218;18.218;2023-05-19T00:15:52;3.70;;;1.30;;
13443;SDS011;6794;59.218;18.218;2023-05-19T00:18:18;2.57;;;1.27;;
13443;SDS011;6794;59.218;18.218;2023-05-19T00:20:44;3.13;;;1.23;;
13443;SDS011;6794;59.218;18.218;2023-05-19T00:23:10;3.33;;;1.47;;
13443;SDS011;6794;59.218;18.218;2023-05-19T00:25:36;3.28;;;1.35;;
13443;SDS011;6794;59.218;18.218;2023-05-19T00:28:03;4.73;;;1.40;;
13443;SDS011;6794;59.218;18.218;2023-05-19T00:30:29;3.50;;;1.20;;
13443;SDS011;6794;59.218;18.218;2023-05-19T00:32:55;6.57;;;1.50;;
13443;SDS011;6794;59.218;18.218;2023-05-19T00:35:24;2.97;;;1.20;;
13443;SDS011;6794;59.218;18.218;2023-05-19T00:37:50;3.37;;;1.50;;
13443;SDS011;6794;59.218;18.218;2023-05-19T00:40:16;2.87;;;1.33;;
13443;SDS011;6794;59.218;18.218;2023-05-19T00:42:42;3.87;;;1.50;;
13443;SDS011;6794;59.218;18.218;2023-05-19T00:45:08;2.53;;;1.20;;
13443;SDS011;6794;59.218;18.218;2023-05-19T00:47:35;2.70;;;1.50;;
13443;SDS011;6794;59.218;18.218;2023-05-19T00:50:01;4.07;;;1.40;;
13443;SDS011;6794;59.218;18.218;2023-05-19T00:52:27;2.67;;;1.30;;
13443;SDS011;6794;59.218;18.218;2023-05-19T00:54:53;4.53;;;1.50;;
13443;SDS011;6794;59.218;18.218;2023-05-19T00:57:20;2.60;;;1.50;;
13443;SDS011;6794;59.218;18.218;2023-05-19T00:59:47;4.93;;;1.50;;
13443;SDS011;6794;59.218;18.218;2023-05-19T01:02:13;4.40;;;1.57;;
13443;SDS011;6794;59.218;18.218;2023-05-19T01:04:39;3.80;;;1.52;;
13443;SDS011;6794;59.218;18.218;2023-05-19T01:07:06;1.70;;;1.50;;
13443;SDS011;6794;59.218;18.218;2023-05-19T01:09:32;2.57;;;1.50;;
13443;SDS011;6794;59.218;18.218;2023-05-19T01:12:01;2.17;;;1.27;;
13443;SDS011;6794;59.218;18.218;2023-05-19T01:14:27;3.43;;;1.40;;
13443;SDS011;6794;59.218;18.218;2023-05-19T01:17:06;2.57;;;1.40;;
13443;SDS011;6794;59.218;18.218;2023-05-19T01:22:11;3.00;;;1.50;;
13443;SDS011;6794;59.218;18.218;2023-05-19T01:32:00;3.90;;;1.10;;
13443;SDS011;6794;59.218;18.218;2023-05-19T01:34:28;2.57;;;1.00;;
13443;SDS011;6794;59.218;18.218;2023-05-19T01:36:55;2.63;;;1.33;;
13443;SDS011;6794;59.218;18.218;2023-05-19T01:39:22;2.70;;;1.20;;
13443;SDS011;6794;59.218;18.218;2023-05-19T01:41:49;2.60;;;1.30;;
13443;SDS011;6794;59.218;18.218;2023-05-19T01:44:15;2.17;;;1.33;;
13443;SDS011;6794;59.218;18.218;2023-05-19T01:46:41;3.78;;;1.50;;
13443;SDS011;6794;59.218;18.218;2023-05-19T01:49:07;2.97;;;1.40;;
13443;SDS011;6794;59.218;18.218;2023-05-19T01:51:33;2.20;;;1.30;;
13443;SDS011;6794;59.218;18.218;2023-05-19T01:54:00;2.30;;;1.37;;
13443;SDS011;6794;59.218;18.218;2023-05-19T01:57:14;4.03;;;1.60;;
13443;SDS011;6794;59.218;18.218;2023-05-19T01:59:21;2.47;;;1.50;;
13443;SDS011;6794;59.218;18.218;2023-05-19T02:01:52;3.73;;;1.30;;
13443;SDS011;6794;59.218;18.218;2023-05-19T02:06:58;2.87;;;1.33;;
13443;SDS011;6794;59.218;18.218;2023-05-19T02:11:55;1.90;;;1.17;;
13443;SDS011;6794;59.218;18.218;2023-05-19T02:14:31;3.00;;;1.20;;
13443;SDS011;6794;59.218;18.218;2023-05-19T02:16:58;2.73;;;1.77;;
13443;SDS011;6794;59.218;18.218;2023-05-19T02:19:28;2.47;;;1.60;;
13443;SDS011;6794;59.218;18.218;2023-05-19T02:21:55;5.27;;;1.40;;
13443;SDS011;6794;59.218;18.218;2023-05-19T02:24:21;4.60;;;1.30;;
13443;SDS011;6794;59.218;18.218;2023-05-19T02:26:48;3.45;;;1.70;;
13443;SDS011;6794;59.218;18.218;2023-05-19T02:29:15;3.87;;;1.40;;
13443;SDS011;6794;59.218;18.218;2023-05-19T02:31:42;2.60;;;1.60;;
13443;SDS011;6794;59.218;18.218;2023-05-19T02:34:08;3.47;;;1.37;;
13443;SDS011;6794;59.218;18.218;2023-05-19T02:36:34;3.33;;;1.40;;
13443;SDS011;6794;59.218;18.218;2023-05-19T02:39:03;4.43;;;1.30;;
13443;SDS011;6794;59.218;18.218;2023-05-19T02:41:29;1.23;;;1.10;;
13443;SDS011;6794;59.218;18.218;2023-05-19T02:43:55;2.90;;;1.20;;
13443;SDS011;6794;59.218;18.218;2023-05-19T02:46:21;1.60;;;1.33;;
13443;SDS011;6794;59.218;18.218;2023-05-19T02:48:48;4.03;;;1.40;;
13443;SDS011;6794;59.218;18.218;2023-05-19T02:51:14;3.17;;;1.40;;
13443;SDS011;6794;59.218;18.218;2023-05-19T02:53:40;4.07;;;1.60;;
13443;SDS011;6794;59.218;18.218;2023-05-19T02:56:06;5.63;;;1.80;;
13443;SDS011;6794;59.218;18.218;2023-05-19T02:58:32;6.57;;;3.50;;
13443;SDS011;6794;59.218;18.218;2023-05-19T03:00:58;4.37;;;2.93;;
13443;SDS011;6794;59.218;18.218;2023-05-19T03:03:24;3.77;;;2.90;;
13443;SDS011;6794;59.218;18.218;2023-05-19T03:05:51;6.32;;;2.95;;
13443;SDS011;6794;59.218;18.218;2023-05-19T03:08:17;3.37;;;2.10;;
13443;SDS011;6794;59.218;18.218;2023-05-19T03:10:44;4.77;;;2.27;;
13443;SDS011;6794;59.218;18.218;2023-05-19T03:13:10;3.47;;;1.87;;
13443;SDS011;6794;59.218;18.218;2023-05-19T03:15:36;3.67;;;1.70;;
13443;SDS011;6794;59.218;18.218;2023-05-19T03:18:02;2.77;;;1.70;;
13443;SDS011;6794;59.218;18.218;2023-05-19T03:20:28;4.67;;;2.07;;
13443;SDS011;6794;59.218;18.218;2023-05-19T03:22:55;4.47;;;1.90;;
13443;SDS011;6794;59.218;18.218;2023-05-19T03:25:21;8.50;;;2.10;;
13443;SDS011;6794;59.218;18.218;2023-05-19T03:27:47;8.00;;;2.30;;
13443;SDS011;6794;59.218;18.218;2023-05-19T03:30:13;5.07;;;1.73;;
13443;SDS011;6794;59.218;18.218;2023-05-19T03:32:39;7.20;;;2.30;;
13443;SDS011;6794;59.218;18.218;2023-05-19T03:35:05;9.13;;;2.27;;
13443;SDS011;6794;59.218;18.218;2023-05-19T03:37:31;4.23;;;2.47;;
13443;SDS011;6794;59.218;18.218;2023-05-19T03:39:58;5.70;;;2.10;;
13443;SDS011;6794;59.218;18.218;2023-05-19T03:42:24;10.40;;;2.13;;
13443;SDS011;6794;59.218;18.218;2023-05-19T03:44:50;6.53;;;2.67;;
13443;SDS011;6794;59.218;18.218;2023-05-19T03:47:16;11.65;;;3.17;;
13443;SDS011;6794;59.218;18.218;2023-05-19T03:49:42;7.37;;;2.37;;
13443;SDS011;6794;59.218;18.218;2023-05-19T03:52:08;6.83;;;2.37;;
13443;SDS011;6794;59.218;18.218;2023-05-19T03:54:34;8.47;;;3.37;;
13443;SDS011;6794;59.218;18.218;2023-05-19T03:57:03;5.00;;;2.53;;
13443;SDS011;6794;59.218;18.218;2023-05-19T03:59:30;9.87;;;2.47;;
13443;SDS011;6794;59.218;18.218;2023-05-19T04:01:56;7.87;;;2.20;;
13443;SDS011;6794;59.218;18.218;2023-05-19T04:04:22;8.23;;;2.53;;
13443;SDS011;6794;59.218;18.218;2023-05-19T04:06:48;6.20;;;2.43;;
13443;SDS011;6794;59.218;18.218;2023-05-19T04:09:14;6.73;;;2.00;;
13443;SDS011;6794;59.218;18.218;2023-05-19T04:11:40;6.10;;;2.30;;
13443;SDS011;6794;59.218;18.218;2023-05-19T04:14:07;5.67;;;2.33;;
13443;SDS011;6794;59.218;18.218;2023-05-19T04:16:33;5.97;;;2.20;;
13443;SDS011;6794;59.218;18.218;2023-05-19T04:18:59;6.93;;;2.20;;
13443;SDS011;6794;59.218;18.218;2023-05-19T04:21:25;9.30;;;2.37;;
13443;SDS011;6794;59.218;18.218;2023-05-19T04:23:52;6.23;;;2.40;;
13443;SDS011;6794;59.218;18.218;2023-05-19T04:26:18;6.85;;;2.42;;
13443;SDS011;6794;59.218;18.218;2023-05-19T04:28:46;7.43;;;1.97;;
13443;SDS011;6794;59.218;18.218;2023-05-19T04:31:12;4.63;;;2.20;;
13443;SDS011;6794;59.218;18.218;2023-05-19T04:33:38;7.17;;;2.13;;
13443;SDS011;6794;59.218;18.218;2023-05-19T04:36:08;5.23;;;1.93;;
13443;SDS011;6794;59.218;18.218;2023-05-19T04:38:37;3.47;;;1.90;;
13443;SDS011;6794;59.218;18.218;2023-05-19T04:41:07;3.97;;;1.73;;
13443;SDS011;6794;59.218;18.218;2023-05-19T04:43:36;7.33;;;2.13;;
13443;SDS011;6794;59.218;18.218;2023-05-19T04:46:08;4.20;;;1.80;;
13443;SDS011;6794;59.218;18.218;2023-05-19T04:48:38;3.80;;;1.80;;
13443;SDS011;6794;59.218;18.218;2023-05-19T04:51:05;7.80;;;2.20;;
13443;SDS011;6794;59.218;18.218;2023-05-19T04:53:31;4.07;;;1.60;;
13443;SDS011;6794;59.218;18.218;2023-05-19T04:55:58;4.13;;;1.60;;
13443;SDS011;6794;59.218;18.218;2023-05-19T04:58:25;6.37;;;2.07;;
13443;SDS011;6794;59.218;18.218;2023-05-19T05:00:51;7.90;;;1.90;;
13443;SDS011;6794;59.218;18.218;2023-05-19T05:03:22;4.27;;;1.90;;
13443;SDS011;6794;59.218;18.218;2023-05-19T05:05:49;5.57;;;1.83;;
13443;SDS011;6794;59.218;18.218;2023-05-19T05:08:15;6.18;;;2.08;;
13443;SDS011;6794;59.218;18.218;2023-05-19T05:10:47;5.60;;;2.00;;
13443;SDS011;6794;59.218;18.218;2023-05-19T05:13:13;5.60;;;2.10;;
13443;SDS011;6794;59.218;18.218;2023-05-19T05:15:39;5.00;;;1.80;;
13443;SDS011;6794;59.218;18.218;2023-05-19T05:18:06;4.70;;;1.67;;
13443;SDS011;6794;59.218;18.218;2023-05-19T05:20:32;5.27;;;1.70;;
13443;SDS011;6794;59.218;18.218;2023-05-19T05:22:58;5.07;;;1.83;;
13443;SDS011;6794;59.218;18.218;2023-05-19T05:25:25;4.03;;;1.63;;
13443;SDS011;6794;59.218;18.218;2023-05-19T05:27:51;6.17;;;1.90;;
13443;SDS011;6794;59.218;18.218;2023-05-19T05:30:17;3.57;;;1.73;;
13443;SDS011;6794;59.218;18.218;2023-05-19T05:32:43;4.53;;;2.07;;
13443;SDS011;6794;59.218;18.218;2023-05-19T05:35:09;4.27;;;2.20;;
13443;SDS011;6794;59.218;18.218;2023-05-19T05:37:35;3.90;;;1.60;;
13443;SDS011;6794;59.218;18.218;2023-05-19T05:40:01;4.73;;;1.77;;
13443;SDS011;6794;59.218;18.218;2023-05-19T05:42:28;4.90;;;1.80;;
13443;SDS011;6794;59.218;18.218;2023-05-19T05:44:54;4.70;;;1.97;;
13443;SDS011;6794;59.218;18.218;2023-05-19T05:47:20;6.63;;;1.70;;
13443;SDS011;6794;59.218;18.218;2023-05-19T05:49:46;6.60;;;2.17;;
13443;SDS011;6794;59.218;18.218;2023-05-19T05:52:13;4.63;;;2.10;;
13443;SDS011;6794;59.218;18.218;2023-05-19T05:54:40;4.60;;;1.77;;
13443;SDS011;6794;59.218;18.218;2023-05-19T05:57:06;4.03;;;1.60;;
13443;SDS011;6794;59.218;18.218;2023-05-19T05:59:32;4.73;;;1.70;;
13443;SDS011;6794;59.218;18.218;2023-05-19T06:01:58;3.90;;;1.73;;
13443;SDS011;6794;59.218;18.218;2023-05-19T06:04:24;5.93;;;1.60;;
13443;SDS011;6794;59.218;18.218;2023-05-19T06:06:50;5.13;;;2.00;;
13443;SDS011;6794;59.218;18.218;2023-05-19T06:09:17;4.67;;;1.83;;
13443;SDS011;6794;59.218;18.218;2023-05-19T06:11:43;4.90;;;1.67;;
13443;SDS011;6794;59.218;18.218;2023-05-19T06:14:09;5.13;;;1.60;;
13443;SDS011;6794;59.218;18.218;2023-05-19T06:16:35;4.43;;;1.70;;
13443;SDS011;6794;59.218;18.218;2023-05-19T06:19:01;6.00;;;1.97;;
13443;SDS011;6794;59.218;18.218;2023-05-19T06:21:27;4.33;;;1.50;;
13443;SDS011;6794;59.218;18.218;2023-05-19T06:23:53;3.23;;;1.97;;
13443;SDS011;6794;59.218;18.218;2023-05-19T06:26:19;4.23;;;1.57;;
13443;SDS011;6794;59.218;18.218;2023-05-19T06:28:46;4.13;;;1.45;;
13443;SDS011;6794;59.218;18.218;2023-05-19T06:31:12;6.63;;;1.50;;
13443;SDS011;6794;59.218;18.218;2023-05-19T06:33:38;4.63;;;1.50;;
13443;SDS011;6794;59.218;18.218;2023-05-19T06:36:04;5.00;;;1.80;;
13443;SDS011;6794;59.218;18.218;2023-05-19T06:38:30;6.10;;;1.53;;
13443;SDS011;6794;59.218;18.218;2023-05-19T06:40:56;2.60;;;1.40;;
13443;SDS011;6794;59.218;18.218;2023-05-19T06:43:22;5.77;;;1.60;;
13443;SDS011;6794;59.218;18.218;2023-05-19T06:45:49;3.40;;;1.63;;
13443;SDS011;6794;59.218;18.218;2023-05-19T06:48:15;2.73;;;1.30;;
13443;SDS011;6794;59.218;18.218;2023-05-19T06:50:41;5.10;;;1.33;;
13443;SDS011;6794;59.218;18.218;2023-05-19T06:53:07;4.67;;;1.97;;
13443;SDS011;6794;59.218;18.218;2023-05-19T06:55:33;3.33;;;1.60;;
13443;SDS011;6794;59.218;18.218;2023-05-19T06:57:59;3.80;;;1.47;;
13443;SDS011;6794;59.218;18.218;2023-05-19T07:00:25;6.30;;;1.93;;
13443;SDS011;6794;59.218;18.218;2023-05-19T07:02:51;4.67;;;1.77;;
13443;SDS011;6794;59.218;18.218;2023-05-19T07:05:17;5.37;;;1.80;;
13443;SDS011;6794;59.218;18.218;2023-05-19T07:07:43;3.50;;;1.80;;
13443;SDS011;6794;59.218;18.218;2023-05-19T07:10:10;4.80;;;1.80;;
13443;SDS011;6794;59.218;18.218;2023-05-19T07:12:36;4.03;;;1.73;;
13443;SDS011;6794;59.218;18.218;2023-05-19T07:15:02;5.57;;;1.70;;
13443;SDS011;6794;59.218;18.218;2023-05-19T07:17:28;3.67;;;1.80;;
13443;SDS011;6794;59.218;18.218;2023-05-19T07:19:54;6.63;;;1.43;;
13443;SDS011;6794;59.218;18.218;2023-05-19T07:22:20;3.10;;;1.67;;
13443;SDS011;6794;59.218;18.218;2023-05-19T07:24:48;5.53;;;1.93;;
13443;SDS011;6794;59.218;18.218;2023-05-19T07:27:14;3.00;;;1.17;;
13443;SDS011;6794;59.218;18.218;2023-05-19T07:29:40;3.33;;;1.83;;
13443;SDS011;6794;59.218;18.218;2023-05-19T07:32:06;3.33;;;1.40;;
13443;SDS011;6794;59.218;18.218;2023-05-19T07:34:32;2.43;;;1.53;;
13443;SDS011;6794;59.218;18.218;2023-05-19T07:36:58;2.70;;;1.30;;
13443;SDS011;6794;59.218;18.218;2023-05-19T07:39:24;4.00;;;1.40;;
13443;SDS011;6794;59.218;18.218;2023-05-19T07:41:53;3.77;;;1.40;;
13443;SDS011;6794;59.218;18.218;2023-05-19T07:44:20;2.40;;;1.33;;
13443;SDS011;6794;59.218;18.218;2023-05-19T07:46:46;3.20;;;1.40;;
13443;SDS011;6794;59.218;18.218;2023-05-19T07:49:12;3.88;;;1.90;;
13443;SDS011;6794;59.218;18.218;2023-05-19T07:51:38;5.95;;;1.75;;
13443;SDS011;6794;59.218;18.218;2023-05-19T07:54:05;5.03;;;1.60;;
13443;SDS011;6794;59.218;18.218;2023-05-19T07:56:32;3.73;;;1.43;;
13443;SDS011;6794;59.218;18.218;2023-05-19T07:58:58;3.90;;;1.30;;
13443;SDS011;6794;59.218;18.218;2023-05-19T08:01:24;1.87;;;1.50;;
13443;SDS011;6794;59.218;18.218;2023-05-19T08:03:50;7.63;;;1.40;;
13443;SDS011;6794;59.218;18.218;2023-05-19T08:06:17;4.77;;;1.63;;
13443;SDS011;6794;59.218;18.218;2023-05-19T08:08:43;4.27;;;1.50;;
13443;SDS011;6794;59.218;18.218;2023-05-19T08:11:10;4.77;;;1.83;;
13443;SDS011;6794;59.218;18.218;2023-05-19T08:13:36;4.23;;;1.60;;
13443;SDS011;6794;59.218;18.218;2023-05-19T08:16:02;4.03;;;1.57;;
13443;SDS011;6794;59.218;18.218;2023-05-19T08:18:29;4.87;;;1.57;;
13443;SDS011;6794;59.218;18.218;2023-05-19T08:20:55;3.17;;;1.20;;
13443;SDS011;6794;59.218;18.218;2023-05-19T08:23:21;3.60;;;1.60;;
13443;SDS011;6794;59.218;18.218;2023-05-19T08:25:47;3.73;;;1.60;;
13443;SDS011;6794;59.218;18.218;2023-05-19T08:28:13;3.00;;;1.40;;
13443;SDS011;6794;59.218;18.218;2023-05-19T08:30:40;4.00;;;1.50;;
13443;SDS011;6794;59.218;18.218;2023-05-19T08:33:06;6.93;;;1.60;;
13443;SDS011;6794;59.218;18.218;2023-05-19T08:35:32;4.13;;;1.37;;
13443;SDS011;6794;59.218;18.218;2023-05-19T08:37:58;2.63;;;1.43;;
13443;SDS011;6794;59.218;18.218;2023-05-19T08:40:24;3.93;;;1.27;;
13443;SDS011;6794;59.218;18.218;2023-05-19T08:42:52;2.97;;;1.60;;
13443;SDS011;6794;59.218;18.218;2023-05-19T08:45:19;6.03;;;1.60;;
13443;SDS011;6794;59.218;18.218;2023-05-19T08:47:45;5.60;;;1.50;;
13443;SDS011;6794;59.218;18.218;2023-05-19T08:50:12;2.33;;;1.00;;
13443;SDS011;6794;59.218;18.218;2023-05-19T08:55:16;2.87;;;1.33;;
13443;SDS011;6794;59.218;18.218;2023-05-19T08:57:46;3.77;;;1.40;;
13443;SDS011;6794;59.218;18.218;2023-05-19T09:00:12;6.43;;;1.43;;
13443;SDS011;6794;59.218;18.218;2023-05-19T09:02:39;7.23;;;1.60;;
13443;SDS011;6794;59.218;18.218;2023-05-19T09:05:06;2.70;;;1.10;;
13443;SDS011;6794;59.218;18.218;2023-05-19T09:07:32;4.00;;;1.60;;
13443;SDS011;6794;59.218;18.218;2023-05-19T09:10:01;3.23;;;1.20;;
13443;SDS011;6794;59.218;18.218;2023-05-19T09:12:27;2.90;;;1.50;;
13443;SDS011;6794;59.218;18.218;2023-05-19T09:14:54;3.13;;;1.30;;
13443;SDS011;6794;59.218;18.218;2023-05-19T09:17:21;5.00;;;1.23;;
13443;SDS011;6794;59.218;18.218;2023-05-19T09:19:47;3.03;;;1.53;;
13443;SDS011;6794;59.218;18.218;2023-05-19T09:22:13;5.50;;;1.37;;
13443;SDS011;6794;59.218;18.218;2023-05-19T09:24:40;2.50;;;1.60;;
13443;SDS011;6794;59.218;18.218;2023-05-19T09:27:06;4.17;;;1.40;;
13443;SDS011;6794;59.218;18.218;2023-05-19T09:29:32;3.40;;;1.10;;
13443;SDS011;6794;59.218;18.218;2023-05-19T09:31:58;1.87;;;1.10;;
13443;SDS011;6794;59.218;18.218;2023-05-19T09:34:28;2.70;;;1.00;;
13443;SDS011;6794;59.218;18.218;2023-05-19T09:36:54;3.40;;;1.33;;
13443;SDS011;6794;59.218;18.218;2023-05-19T09:39:22;1.50;;;1.07;;
13443;SDS011;6794;59.218;18.218;2023-05-19T09:41:53;3.53;;;1.07;;
13443;SDS011;6794;59.218;18.218;2023-05-19T09:46:50;2.60;;;1.10;;
13443;SDS011;6794;59.218;18.218;2023-05-19T09:49:23;2.60;;;1.00;;
13443;SDS011;6794;59.218;18.218;2023-05-19T09:51:52;2.33;;;1.17;;
13443;SDS011;6794;59.218;18.218;2023-05-19T09:54:19;1.85;;;1.08;;
13443;SDS011;6794;59.218;18.218;2023-05-19T09:56:46;3.20;;;1.13;;
13443;SDS011;6794;59.218;18.218;2023-05-19T09:59:15;2.87;;;1.17;;
13443;SDS011;6794;59.218;18.218;2023-05-19T10:01:42;0.93;;;0.80;;
13443;SDS011;6794;59.218;18.218;2023-05-19T10:04:10;1.07;;;0.80;;
13443;SDS011;6794;59.218;18.218;2023-05-19T10:06:37;3.70;;;1.03;;
13443;SDS011;6794;59.218;18.218;2023-05-19T10:09:03;3.00;;;1.57;;
13443;SDS011;6794;59.218;18.218;2023-05-19T10:11:29;3.93;;;1.10;;
13443;SDS011;6794;59.218;18.218;2023-05-19T10:13:56;2.53;;;1.03;;
13443;SDS011;6794;59.218;18.218;2023-05-19T10:16:22;1.67;;;1.10;;
13443;SDS011;6794;59.218;18.218;2023-05-19T10:18:51;1.50;;;0.80;;
13443;SDS011;6794;59.218;18.218;2023-05-19T10:21:17;1.63;;;0.80;;
13443;SDS011;6794;59.218;18.218;2023-05-19T10:23:43;1.97;;;1.00;;
13443;SDS011;6794;59.218;18.218;2023-05-19T10:26:09;2.13;;;0.93;;
13443;SDS011;6794;59.218;18.218;2023-05-19T10:28:37;1.23;;;1.00;;
13443;SDS011;6794;59.218;18.218;2023-05-19T10:31:05;1.93;;;0.97;;
13443;SDS011;6794;59.218;18.218;2023-05-19T10:33:44;1.53;;;0.77;;
13443;SDS011;6794;59.218;18.218;2023-05-19T10:46:48;1.70;;;0.80;;
13443;SDS011;6794;59.218;18.218;2023-05-19T10:49:20;1.20;;;1.10;;
13443;SDS011;6794;59.218;18.218;2023-05-19T10:51:46;1.60;;;1.10;;
13443;SDS011;6794;59.218;18.218;2023-05-19T10:54:12;2.33;;;1.10;;
13443;SDS011;6794;59.218;18.218;2023-05-19T10:56:41;1.80;;;0.97;;
13443;SDS011;6794;59.218;18.218;2023-05-19T10:59:29;1.50;;;0.90;;
13443;SDS011;6794;59.218;18.218;2023-05-19T11:01:56;2.23;;;1.10;;
13443;SDS011;6794;59.218;18.218;2023-05-19T11:04:37;1.13;;;0.83;;
13443;SDS011;6794;59.218;18.218;2023-05-19T11:07:04;1.40;;;1.00;;
13443;SDS011;6794;59.218;18.218;2023-05-19T11:09:30;1.53;;;0.93;;
13443;SDS011;6794;59.218;18.218;2023-05-19T11:12:00;2.17;;;1.00;;
13443;SDS011;6794;59.218;18.218;2023-05-19T11:14:27;1.27;;;0.90;;
13443;SDS011;6794;59.218;18.218;2023-05-19T11:16:55;1.90;;;0.90;;
13443;SDS011;6794;59.218;18.218;2023-05-19T11:19:34;1.30;;;0.80;;
13443;SDS011;6794;59.218;18.218;2023-05-19T11:22:07;4.10;;;1.23;;
13443;SDS011;6794;59.218;18.218;2023-05-19T11:24:34;0.97;;;0.80;;
13443;SDS011;6794;59.218;18.218;2023-05-19T11:29:44;2.07;;;0.90;;
13443;SDS011;6794;59.218;18.218;2023-05-19T11:32:12;0.80;;;0.73;;
13443;SDS011;6794;59.218;18.218;2023-05-19T11:34:38;1.23;;;1.00;;
13443;SDS011;6794;59.218;18.218;2023-05-19T11:37:05;1.77;;;0.90;;
13443;SDS011;6794;59.218;18.218;2023-05-19T11:39:31;1.58;;;0.85;;
13443;SDS011;6794;59.218;18.218;2023-05-19T11:41:57;1.23;;;0.90;;
13443;SDS011;6794;59.218;18.218;2023-05-19T11:44:23;1.83;;;0.87;;
13443;SDS011;6794;59.218;18.218;2023-05-19T11:46:49;1.67;;;1.10;;
13443;SDS011;6794;59.218;18.218;2023-05-19T11:49:16;1.10;;;0.80;;
13443;SDS011;6794;59.218;18.218;2023-05-19T11:51:42;2.47;;;0.90;;
13443;SDS011;6794;59.218;18.218;2023-05-19T11:54:11;1.23;;;0.80;;
13443;SDS011;6794;59.218;18.218;2023-05-19T11:56:41;2.23;;;0.90;;
13443;SDS011;6794;59.218;18.218;2023-05-19T11:59:07;1.80;;;1.10;;
13443;SDS011;6794;59.218;18.218;2023-05-19T12:01:34;1.07;;;0.80;;
13443;SDS011;6794;59.218;18.218;2023-05-19T12:04:09;3.10;;;1.10;;
13443;SDS011;6794;59.218;18.218;2023-05-19T12:06:35;1.67;;;0.93;;
13443;SDS011;6794;59.218;18.218;2023-05-19T12:09:01;1.57;;;1.00;;
13443;SDS011;6794;59.218;18.218;2023-05-19T12:11:27;1.30;;;1.00;;
13443;SDS011;6794;59.218;18.218;2023-05-19T12:13:54;1.53;;;0.90;;
13443;SDS011;6794;59.218;18.218;2023-05-19T12:16:30;2.63;;;1.00;;
13443;SDS011;6794;59.218;18.218;2023-05-19T12:18:57;1.10;;;0.87;;
13443;SDS011;6794;59.218;18.218;2023-05-19T12:21:24;4.57;;;1.10;;
13443;SDS011;6794;59.218;18.218;2023-05-19T12:23:50;2.57;;;0.87;;
13443;SDS011;6794;59.218;18.218;2023-05-19T12:26:16;1.27;;;0.90;;
13443;SDS011;6794;59.218;18.218;2023-05-19T12:28:44;2.20;;;1.10;;
13443;SDS011;6794;59.218;18.218;2023-05-19T12:31:10;2.37;;;1.30;;
13443;SDS011;6794;59.218;18.218;2023-05-19T12:33:36;1.33;;;1.00;;
13443;SDS011;6794;59.218;18.218;2023-05-19T12:36:03;2.03;;;1.00;;
13443;SDS011;6794;59.218;18.218;2023-05-19T12:38:29;3.87;;;1.10;;
13443;SDS011;6794;59.218;18.218;2023-05-19T12:40:57;2.20;;;1.00;;
13443;SDS011;6794;59.218;18.218;2023-05-19T12:43:24;2.13;;;1.23;;
13443;SDS011;6794;59.218;18.218;2023-05-19T12:45:50;2.20;;;0.90;;
13443;SDS011;6794;59.218;18.218;2023-05-19T12:48:16;1.77;;;0.90;;
13443;SDS011;6794;59.218;18.218;2023-05-19T12:50:43;1.63;;;1.20;;
13443;SDS011;6794;59.218;18.218;2023-05-19T12:53:10;2.23;;;0.90;;
13443;SDS011;6794;59.218;18.218;2023-05-19T12:55:40;1.03;;;0.90;;
13443;SDS011;6794;59.218;18.218;2023-05-19T12:58:06;1.93;;;1.07;;
13443;SDS011;6794;59.218;18.218;2023-05-19T13:00:33;3.57;;;1.23;;
13443;SDS011;6794;59.218;18.218;2023-05-19T13:03:05;2.13;;;1.03;;
13443;SDS011;6794;59.218;18.218;2023-05-19T13:05:32;3.13;;;1.13;;
13443;SDS011;6794;59.218;18.218;2023-05-19T13:07:59;2.60;;;1.13;;
13443;SDS011;6794;59.218;18.218;2023-05-19T13:10:28;2.43;;;1.27;;
13443;SDS011;6794;59.218;18.218;2023-05-19T13:12:55;3.53;;;1.10;;
13443;SDS011;6794;59.218;18.218;2023-05-19T13:15:23;1.70;;;1.10;;
13443;SDS011;6794;59.218;18.218;2023-05-19T13:17:51;2.83;;;1.23;;
13443;SDS011;6794;59.218;18.218;2023-05-19T13:20:17;3.47;;;1.40;;
13443;SDS011;6794;59.218;18.218;2023-05-19T13:22:43;2.33;;;0.90;;
13443;SDS011;6794;59.218;18.218;2023-05-19T13:25:10;1.87;;;0.90;;
13443;SDS011;6794;59.218;18.218;2023-05-19T13:27:36;0.87;;;0.80;;
13443;SDS011;6794;59.218;18.218;2023-05-19T13:30:02;1.73;;;0.83;;
13443;SDS011;6794;59.218;18.218;2023-05-19T13:32:28;1.90;;;1.20;;
13443;SDS011;6794;59.218;18.218;2023-05-19T13:34:55;1.90;;;1.30;;
13443;SDS011;6794;59.218;18.218;2023-05-19T13:37:21;2.40;;;1.20;;
13443;SDS011;6794;59.218;18.218;2023-05-19T13:39:47;1.60;;;0.83;;
13443;SDS011;6794;59.218;18.218;2023-05-19T13:42:13;1.77;;;1.00;;
13443;SDS011;6794;59.218;18.218;2023-05-19T13:44:41;1.97;;;0.87;;
13443;SDS011;6794;59.218;18.218;2023-05-19T13:47:07;3.33;;;0.97;;
13443;SDS011;6794;59.218;18.218;2023-05-19T13:49:33;2.20;;;1.00;;
13443;SDS011;6794;59.218;18.218;2023-05-19T13:51:59;1.73;;;1.13;;
13443;SDS011;6794;59.218;18.218;2023-05-19T13:54:25;1.97;;;1.00;;
13443;SDS011;6794;59.218;18.218;2023-05-19T13:56:51;2.20;;;1.10;;
13443;SDS011;6794;59.218;18.218;2023-05-19T13:59:18;2.20;;;1.20;;
13443;SDS011;6794;59.218;18.218;2023-05-19T14:01:45;1.73;;;1.10;;
13443;SDS011;6794;59.218;18.218;2023-05-19T14:04:12;2.77;;;1.17;;
13443;SDS011;6794;59.218;18.218;2023-05-19T14:06:38;1.63;;;0.93;;
13443;SDS011;6794;59.218;18.218;2023-05-19T14:09:04;1.13;;;1.03;;
13443;SDS011;6794;59.218;18.218;2023-05-19T14:11:30;1.60;;;0.90;;
13443;SDS011;6794;59.218;18.218;2023-05-19T14:13:56;1.73;;;1.20;;
13443;SDS011;6794;59.218;18.218;2023-05-19T14:16:22;2.70;;;1.20;;
13443;SDS011;6794;59.218;18.218;2023-05-19T14:18:50;1.23;;;1.00;;
13443;SDS011;6794;59.218;18.218;2023-05-19T14:21:16;2.27;;;1.00;;
13443;SDS011;6794;59.218;18.218;2023-05-19T14:23:42;2.40;;;1.00;;
13443;SDS011;6794;59.218;18.218;2023-05-19T14:26:08;2.47;;;1.17;;
13443;SDS011;6794;59.218;18.218;2023-05-19T14:28:34;1.77;;;1.00;;
13443;SDS011;6794;59.218;18.218;2023-05-19T14:31:00;1.67;;;1.00;;
13443;SDS011;6794;59.218;18.218;2023-05-19T14:33:27;2.30;;;1.03;;
13443;SDS011;6794;59.218;18.218;2023-05-19T14:35:53;1.40;;;1.30;;
13443;SDS011;6794;59.218;18.218;2023-05-19T14:38:19;1.57;;;1.00;;
13443;SDS011;6794;59.218;18.218;2023-05-19T14:40:46;1.27;;;0.97;;
13443;SDS011;6794;59.218;18.218;2023-05-19T14:43:12;2.27;;;1.10;;
13443;SDS011;6794;59.218;18.218;2023-05-19T14:45:38;2.20;;;1.10;;
13443;SDS011;6794;59.218;18.218;2023-05-19T14:48:06;0.70;;;0.70;;
13443;SDS011;6794;59.218;18.218;2023-05-19T14:50:32;1.77;;;1.20;;
13443;SDS011;6794;59.218;18.218;2023-05-19T14:52:58;2.57;;;1.00;;
13443;SDS011;6794;59.218;18.218;2023-05-19T14:55:24;2.60;;;1.20;;
13443;SDS011;6794;59.218;18.218;2023-05-19T14:57:50;2.87;;;1.30;;
13443;SDS011;6794;59.218;18.218;2023-05-19T15:00:16;3.03;;;1.90;;
13443;SDS011;6794;59.218;18.218;2023-05-19T15:02:42;2.53;;;1.20;;
13443;SDS011;6794;59.218;18.218;2023-05-19T15:05:08;3.03;;;1.07;;
13443;SDS011;6794;59.218;18.218;2023-05-19T15:07:35;2.63;;;1.00;;
13443;SDS011;6794;59.218;18.218;2023-05-19T15:10:02;3.03;;;1.23;;
13443;SDS011;6794;59.218;18.218;2023-05-19T15:12:28;2.80;;;1.00;;
13443;SDS011;6794;59.218;18.218;2023-05-19T15:14:54;2.50;;;1.17;;
13443;SDS011;6794;59.218;18.218;2023-05-19T15:17:20;2.80;;;1.07;;
13443;SDS011;6794;59.218;18.218;2023-05-19T15:19:46;2.27;;;1.20;;